Terminal Aerodrome Forecast
Issued by NWS Bismarck, ND

Home | Current Version | Previous Version | Text Only | Print | Product List | Glossary Off
Versions: 1 2 3 4 5 6 7 8 9 10 11 12 13 14

000
FTUS43 KBIS 202333
TAFBIS
TAF
KBIS 202333Z 2100/2124 24008KT P6SM FEW250
     FM210500 18005KT P6SM BKN100
     FM210900 20005KT P6SM BKN090 WS020/27035KT
     FM211500 26006KT P6SM BKN090=

USA.gov is the U.S. government's official web portal to all federal, state and local government web resources and services.